Time;durP1;ratioP1;P1;durP2;ratioP2;P2;SDS_P1;SDS_P2;PMS_P1;PMS_P2;Temp;Humidity;BMP_temperature;BMP_pressure;BME280_temperature;BME280_humidity;BME280_pressure;Samples;Min_cycle;Max_cycle;Signal;HPM_P1;HPM_P2
2021/10/15 00:01:14;;;;;;;4.03;2.40;;;12.60;96.70;;;;;;5093437;28;20483;-84
2021/10/15 00:03:43;;;;;;;2.55;2.00;;;12.60;96.70;;;;;;5082681;28;20857;-84
2021/10/15 00:06:11;;;;;;;4.85;2.30;;;12.50;96.70;;;;;;5089902;28;20036;-83
2021/10/15 00:08:39;;;;;;;3.15;2.08;;;12.30;96.70;;;;;;5088082;28;20044;-83
2021/10/15 00:11:09;;;;;;;4.35;1.90;;;12.30;96.70;;;;;;5087704;28;20048;-84
2021/10/15 00:13:37;;;;;;;3.85;2.28;;;12.40;96.70;;;;;;5085313;28;20138;-84
2021/10/15 00:16:05;;;;;;;3.15;1.90;;;12.40;96.70;;;;;;5091397;28;20204;-83
2021/10/15 00:18:34;;;;;;;4.75;2.40;;;12.40;96.70;;;;;;5092214;28;20467;-83
2021/10/15 00:21:02;;;;;;;4.15;1.77;;;12.40;96.70;;;;;;5095353;28;20533;-83
2021/10/15 00:23:30;;;;;;;3.53;2.00;;;12.40;96.70;;;;;;5092038;28;20066;-84
2021/10/15 00:25:59;;;;;;;4.65;2.10;;;12.40;96.70;;;;;;5086119;28;20044;-84
2021/10/15 00:28:28;;;;;;;5.43;1.70;;;12.30;96.70;;;;;;5097792;28;21099;-83
2021/10/15 00:30:58;;;;;;;2.53;1.50;;;12.30;96.70;;;;;;5096150;28;20040;-83
2021/10/15 00:33:26;;;;;;;2.47;1.58;;;12.30;96.70;;;;;;5094176;28;20532;-83
2021/10/15 00:35:55;;;;;;;2.08;1.30;;;12.40;96.70;;;;;;5084756;28;20036;-83
2021/10/15 00:38:23;;;;;;;2.35;1.40;;;12.20;96.70;;;;;;5087593;28;20035;-83
2021/10/15 00:40:51;;;;;;;3.03;1.40;;;12.30;96.70;;;;;;5090733;28;20085;-83
2021/10/15 00:43:19;;;;;;;2.63;1.60;;;12.40;96.70;;;;;;5080461;28;20036;-83
2021/10/15 00:45:49;;;;;;;4.35;1.67;;;12.20;96.70;;;;;;5086111;28;20050;-83
2021/10/15 00:48:19;;;;;;;4.20;1.50;;;12.20;96.70;;;;;;5095476;28;20495;-83
2021/10/15 00:50:48;;;;;;;2.97;1.60;;;12.20;96.70;;;;;;5099979;28;20513;-83
2021/10/15 00:53:16;;;;;;;2.60;1.63;;;12.10;96.70;;;;;;5095680;28;20693;-83
2021/10/15 00:55:44;;;;;;;3.03;1.63;;;12.00;96.70;;;;;;5096543;28;20538;-83
2021/10/15 00:58:12;;;;;;;2.80;1.55;;;12.20;96.70;;;;;;5092069;28;20046;-83
2021/10/15 01:00:41;;;;;;;3.38;1.77;;;12.20;96.70;;;;;;5097214;28;20157;-83
2021/10/15 01:03:11;;;;;;;2.60;1.30;;;12.00;96.70;;;;;;5107151;28;20446;-83
2021/10/15 01:05:39;;;;;;;4.05;1.60;;;12.00;96.70;;;;;;5093633;28;20078;-84
2021/10/15 01:08:07;;;;;;;4.25;1.63;;;12.00;96.70;;;;;;5082497;28;20309;-83
2021/10/15 01:10:36;;;;;;;4.07;1.70;;;12.00;96.70;;;;;;5090673;28;20119;-83
2021/10/15 01:13:04;;;;;;;2.15;1.45;;;12.10;96.70;;;;;;5088044;28;20039;-83
2021/10/15 01:15:32;;;;;;;2.40;1.30;;;12.10;96.70;;;;;;5095449;28;20059;-82
2021/10/15 01:18:00;;;;;;;1.98;1.13;;;12.00;96.70;;;;;;5095207;28;20126;-83
2021/10/15 01:20:30;;;;;;;4.10;1.20;;;12.00;96.70;;;;;;5115018;28;20043;-83
2021/10/15 01:22:58;;;;;;;2.92;1.48;;;11.90;96.70;;;;;;5081468;28;20086;-84
2021/10/15 01:25:32;;;;;;;1.80;1.20;;;11.90;96.70;;;;;;5075035;28;20048;-83
2021/10/15 01:28:01;;;;;;;4.95;1.55;;;11.80;96.70;;;;;;5113808;28;20043;-83
2021/10/15 01:30:30;;;;;;;5.82;1.50;;;11.70;96.70;;;;;;5090282;28;20047;-83
2021/10/15 01:33:00;;;;;;;3.38;1.20;;;11.70;96.70;;;;;;5117107;28;20074;-84
2021/10/15 01:35:29;;;;;;;2.60;1.38;;;11.60;96.70;;;;;;5094178;28;20615;-84
2021/10/15 01:37:58;;;;;;;2.40;1.23;;;11.60;96.70;;;;;;5096005;28;20051;-83
2021/10/15 01:40:26;;;;;;;2.83;1.30;;;11.50;96.70;;;;;;5093161;27;20035;-84
2021/10/15 01:42:54;;;;;;;4.63;1.42;;;11.50;96.70;;;;;;5091048;27;20047;-84
2021/10/15 01:45:22;;;;;;;2.20;1.40;;;11.60;96.70;;;;;;5091926;27;20063;-84
2021/10/15 01:47:51;;;;;;;2.15;1.20;;;11.40;96.70;;;;;;5081615;27;20067;-83
2021/10/15 01:50:20;;;;;;;2.70;1.42;;;11.40;96.70;;;;;;5113804;27;20039;-83
2021/10/15 01:52:51;;;;;;;3.13;1.20;;;11.50;96.70;;;;;;5087592;27;20121;-83
2021/10/15 01:55:20;;;;;;;3.30;1.45;;;11.40;96.70;;;;;;5111322;27;20112;-83
2021/10/15 01:57:48;;;;;;;2.67;1.25;;;11.40;96.70;;;;;;5080475;27;20040;-82
2021/10/15 02:00:16;;;;;;;3.25;1.58;;;11.50;96.70;;;;;;5098628;27;20074;-83
2021/10/15 02:02:45;;;;;;;2.22;1.48;;;11.40;96.70;;;;;;5097487;27;20385;-83
2021/10/15 02:05:15;;;;;;;2.55;1.30;;;11.30;96.70;;;;;;5103731;27;20051;-83
2021/10/15 02:07:46;;;;;;;1.58;1.05;;;11.40;96.70;;;;;;5087478;27;20095;-83
2021/10/15 02:10:17;;;;;;;3.60;1.35;;;11.40;96.70;;;;;;5106337;27;20130;-83
2021/10/15 02:12:50;;;;;;;3.28;1.58;;;11.40;96.70;;;;;;5095244;27;20350;-83
2021/10/15 02:15:22;;;;;;;2.72;1.40;;;11.40;96.70;;;;;;5099709;27;20324;-83
2021/10/15 02:17:50;;;;;;;2.95;1.13;;;11.30;96.70;;;;;;5094977;28;20047;-83
2021/10/15 02:20:20;;;;;;;2.97;1.30;;;11.30;96.70;;;;;;5115613;27;20091;-83
2021/10/15 02:22:50;;;;;;;2.55;1.20;;;11.30;96.70;;;;;;5086503;27;20039;-83
2021/10/15 02:25:20;;;;;;;2.03;1.13;;;11.40;96.70;;;;;;5104311;27;20050;-83
2021/10/15 02:27:49;;;;;;;2.78;1.20;;;11.40;96.70;;;;;;5093796;27;20489;-84
2021/10/15 02:30:18;;;;;;;2.05;1.42;;;11.40;96.70;;;;;;5094959;27;20042;-84
2021/10/15 02:32:47;;;;;;;2.58;1.15;;;11.40;96.70;;;;;;5118549;27;20667;-84
2021/10/15 02:35:16;;;;;;;2.17;0.90;;;11.30;96.70;;;;;;5090243;28;20134;-82
2021/10/15 02:37:45;;;;;;;2.03;1.30;;;11.30;96.70;;;;;;5097340;27;20046;-83
2021/10/15 02:40:14;;;;;;;4.70;1.10;;;11.30;96.70;;;;;;5115438;27;20048;-83
2021/10/15 02:42:44;;;;;;;1.88;1.45;;;11.40;96.70;;;;;;5118433;27;20043;-83
2021/10/15 02:45:12;;;;;;;3.28;1.40;;;11.30;96.70;;;;;;5093339;28;20039;-83
2021/10/15 02:47:40;;;;;;;2.85;1.00;;;11.30;96.70;;;;;;5074593;28;20047;-83
2021/10/15 02:50:09;;;;;;;1.83;1.00;;;11.30;96.70;;;;;;5094639;27;20050;-83
2021/10/15 02:52:38;;;;;;;1.30;0.93;;;11.30;96.70;;;;;;5091777;27;20039;-83
2021/10/15 02:55:08;;;;;;;1.85;1.00;;;11.30;96.70;;;;;;5088225;28;20047;-83
2021/10/15 02:57:36;;;;;;;1.83;1.17;;;11.30;96.70;;;;;;5097932;27;20574;-83
2021/10/15 03:00:07;;;;;;;3.45;1.00;;;11.30;96.70;;;;;;5083470;27;20075;-83
2021/10/15 03:02:35;;;;;;;2.50;1.00;;;11.20;96.70;;;;;;5074272;28;20051;-84
2021/10/15 03:05:04;;;;;;;1.90;1.10;;;11.30;96.70;;;;;;5100305;27;20031;-83
2021/10/15 03:07:34;;;;;;;1.83;1.02;;;11.30;96.70;;;;;;5093850;27;20479;-83
2021/10/15 03:10:03;;;;;;;2.53;1.00;;;11.30;96.70;;;;;;5076873;27;20318;-83
2021/10/15 03:12:31;;;;;;;1.42;0.88;;;11.30;96.70;;;;;;5115762;27;20035;-83
2021/10/15 03:14:59;;;;;;;1.50;0.90;;;11.20;96.70;;;;;;5098784;28;20113;-84
2021/10/15 03:17:29;;;;;;;1.63;1.00;;;11.10;96.70;;;;;;5085087;27;20053;-84
2021/10/15 03:19:57;;;;;;;2.45;1.25;;;11.00;96.70;;;;;;5092189;28;20080;-83
2021/10/15 03:22:25;;;;;;;1.80;1.00;;;10.90;96.70;;;;;;5111018;27;20043;-84
2021/10/15 03:24:53;;;;;;;3.42;1.10;;;10.90;96.70;;;;;;5083580;28;20422;-83
2021/10/15 03:27:21;;;;;;;3.80;1.00;;;10.90;96.70;;;;;;5088045;27;20039;-84
2021/10/15 03:29:50;;;;;;;2.60;0.98;;;10.80;96.70;;;;;;5089844;28;20493;-83
2021/10/15 03:32:18;;;;;;;2.20;1.15;;;10.70;96.70;;;;;;5106803;27;20226;-83
2021/10/15 03:34:48;;;;;;;1.63;1.08;;;10.80;96.70;;;;;;5107060;27;20067;-84
2021/10/15 03:37:16;;;;;;;2.22;1.17;;;10.90;96.70;;;;;;5091300;28;20071;-83
2021/10/15 03:39:45;;;;;;;2.58;0.82;;;11.00;96.70;;;;;;5096430;27;20035;-83
2021/10/15 03:42:13;;;;;;;3.22;1.02;;;11.00;96.70;;;;;;5108595;27;20031;-83
2021/10/15 03:44:41;;;;;;;3.22;1.00;;;10.90;96.70;;;;;;5079072;28;20043;-83
2021/10/15 03:47:10;;;;;;;1.13;0.85;;;10.90;96.70;;;;;;5091314;27;20042;-83
2021/10/15 03:49:39;;;;;;;3.42;0.90;;;10.80;96.70;;;;;;5097029;27;20124;-83
2021/10/15 03:52:08;;;;;;;2.08;1.17;;;10.70;96.70;;;;;;5096179;28;20035;-83
2021/10/15 03:54:37;;;;;;;2.50;1.08;;;10.60;96.70;;;;;;5091775;27;20043;-84
2021/10/15 03:57:05;;;;;;;1.80;0.90;;;10.60;96.70;;;;;;5088100;27;20138;-84
2021/10/15 03:59:33;;;;;;;3.08;1.17;;;10.50;96.70;;;;;;5106681;27;20035;-84
2021/10/15 04:02:01;;;;;;;1.48;0.90;;;10.50;96.70;;;;;;5102682;27;20132;-84
2021/10/15 04:04:30;;;;;;;4.10;0.93;;;10.50;96.70;;;;;;5092240;28;20047;-84
2021/10/15 04:06:59;;;;;;;1.38;0.93;;;10.40;96.70;;;;;;5087787;28;20405;-83
2021/10/15 04:09:28;;;;;;;2.15;1.00;;;10.40;96.70;;;;;;5077732;27;20039;-83
2021/10/15 04:11:57;;;;;;;1.88;1.08;;;10.40;96.70;;;;;;5084576;28;20039;-83
2021/10/15 04:14:25;;;;;;;2.50;0.77;;;10.50;96.70;;;;;;5101866;27;20134;-82
2021/10/15 04:16:53;;;;;;;2.38;1.08;;;10.40;96.70;;;;;;5099434;27;20079;-83
2021/10/15 04:19:22;;;;;;;1.45;0.85;;;10.30;96.70;;;;;;5111405;27;20081;-83
2021/10/15 04:21:50;;;;;;;2.45;0.95;;;10.20;96.70;;;;;;5095683;28;20035;-83
2021/10/15 04:24:18;;;;;;;4.40;1.10;;;10.20;96.70;;;;;;5113267;27;20032;-83
2021/10/15 04:26:48;;;;;;;2.40;1.33;;;10.30;96.70;;;;;;5096501;28;20698;-83
2021/10/15 04:29:16;;;;;;;2.42;1.00;;;10.40;96.70;;;;;;5114951;27;20110;-84
2021/10/15 04:31:44;;;;;;;3.90;1.40;;;10.40;96.70;;;;;;5085184;28;20112;-84
2021/10/15 04:34:12;;;;;;;2.58;1.13;;;10.50;96.70;;;;;;5092887;28;20126;-83
2021/10/15 04:36:41;;;;;;;3.03;1.38;;;10.40;96.70;;;;;;5083328;28;20043;-83
2021/10/15 04:39:10;;;;;;;2.45;1.10;;;10.40;96.70;;;;;;5080826;28;20101;-84
2021/10/15 04:41:38;;;;;;;4.22;2.17;;;10.40;96.70;;;;;;5103762;28;20617;-83
2021/10/15 04:44:08;;;;;;;24.10;12.10;;;10.40;96.70;;;;;;5095713;28;20050;-84
2021/10/15 04:46:36;;;;;;;32.22;16.45;;;10.40;96.70;;;;;;5093379;28;20407;-83
2021/10/15 04:49:04;;;;;;;35.17;18.02;;;10.20;96.70;;;;;;5082331;28;20067;-84
2021/10/15 04:51:33;;;;;;;33.35;17.42;;;10.20;96.70;;;;;;5099602;28;20043;-82
2021/10/15 04:54:01;;;;;;;22.65;12.20;;;10.30;96.70;;;;;;5090741;28;20390;-84
2021/10/15 04:56:30;;;;;;;20.67;9.63;;;10.30;96.70;;;;;;5094603;28;20060;-83
2021/10/15 04:58:58;;;;;;;15.20;6.97;;;10.20;96.70;;;;;;5089296;28;20040;-85
2021/10/15 05:01:28;;;;;;;11.95;5.60;;;10.20;96.70;;;;;;5085132;28;20044;-84
2021/10/15 05:03:57;;;;;;;8.73;4.38;;;10.20;96.70;;;;;;5077965;28;20075;-85
2021/10/15 05:06:25;;;;;;;6.07;2.58;;;10.10;96.70;;;;;;5083603;28;20545;-84
2021/10/15 05:11:39;;;;;;;2.95;1.67;;;10.00;96.70;;;;;;5089706;28;20048;-84
2021/10/15 05:14:08;;;;;;;2.90;1.75;;;10.10;96.70;;;;;;5097186;28;20044;-84
2021/10/15 05:16:38;;;;;;;4.03;1.63;;;10.10;96.70;;;;;;5097062;28;20554;-84
2021/10/15 05:19:06;;;;;;;3.60;1.60;;;10.10;96.70;;;;;;5097908;28;20040;-84
2021/10/15 05:21:34;;;;;;;4.70;2.30;;;10.00;96.70;;;;;;5096365;28;20071;-83
2021/10/15 05:24:03;;;;;;;4.47;2.35;;;9.90;96.70;;;;;;5085849;28;20043;-84
2021/10/15 05:26:31;;;;;;;6.25;2.72;;;9.80;96.70;;;;;;5075976;28;20048;-84
2021/10/15 05:28:59;;;;;;;6.43;3.17;;;9.70;96.70;;;;;;5095434;28;20117;-83
2021/10/15 05:31:27;;;;;;;7.93;3.97;;;9.90;96.70;;;;;;5087490;28;20044;-84
2021/10/15 05:33:57;;;;;;;9.05;4.75;;;10.00;96.70;;;;;;5094443;28;20051;-84
2021/10/15 05:36:25;;;;;;;10.07;5.90;;;10.00;96.70;;;;;;5080210;28;20132;-84
2021/10/15 05:38:54;;;;;;;13.15;6.85;;;10.00;96.70;;;;;;5098383;28;20036;-83
2021/10/15 05:41:22;;;;;;;13.30;6.65;;;9.90;96.70;;;;;;5089135;28;20048;-84
2021/10/15 05:43:50;;;;;;;13.88;6.15;;;9.80;96.70;;;;;;5084831;28;20043;-83
2021/10/15 05:46:18;;;;;;;12.75;6.07;;;9.80;96.70;;;;;;5079683;28;20047;-84
2021/10/15 05:48:46;;;;;;;11.13;5.30;;;9.90;96.70;;;;;;5094048;28;20040;-84
2021/10/15 05:51:16;;;;;;;10.55;5.63;;;10.00;96.70;;;;;;5091584;27;20040;-83
2021/10/15 05:53:45;;;;;;;10.90;4.80;;;10.00;96.70;;;;;;5091244;28;20039;-81
2021/10/15 05:57:00;;;;;;;13.40;4.68;;;10.00;96.70;;;;;;5093275;28;20163;-79
2021/10/15 05:59:04;;;;;;;9.35;3.58;;;9.90;96.70;;;;;;5080130;28;20501;-81
2021/10/15 06:01:34;;;;;;;10.40;2.78;;;9.90;96.70;;;;;;5097578;28;20036;-81
2021/10/15 06:04:30;;;;;;;9.52;3.17;;;9.90;96.70;;;;;;5089624;28;20081;-82
2021/10/15 06:08:39;;;;;;;13.05;3.00;;;9.80;96.70;;;;;;5096388;28;20047;-83
2021/10/15 06:15:39;;;;;;;5.57;2.08;;;9.50;96.70;;;;;;5084813;28;20047;-85
2021/10/15 06:18:19;;;;;;;6.72;2.22;;;9.70;96.70;;;;;;5088425;28;20048;-86
2021/10/15 06:20:48;;;;;;;6.28;2.08;;;9.90;96.70;;;;;;5074478;28;20505;-86
2021/10/15 06:23:19;;;;;;;6.70;2.50;;;10.00;96.70;;;;;;5080560;28;20048;-85
2021/10/15 06:25:47;;;;;;;6.68;2.38;;;10.00;96.70;;;;;;5094321;28;20039;-84
2021/10/15 06:28:16;;;;;;;5.97;2.63;;;10.10;96.70;;;;;;5095630;28;20492;-86
2021/10/15 06:30:45;;;;;;;8.23;2.85;;;10.10;96.70;;;;;;5086976;28;20039;-85
2021/10/15 06:33:12;;;;;;;5.45;2.42;;;10.10;96.70;;;;;;5072582;28;20040;-85
2021/10/15 06:35:41;;;;;;;10.95;3.13;;;10.20;96.70;;;;;;5099867;28;20040;-86
2021/10/15 06:38:11;;;;;;;10.15;3.38;;;10.30;96.70;;;;;;5076856;28;20076;-85
2021/10/15 06:40:42;;;;;;;8.07;3.60;;;10.30;96.70;;;;;;5098563;28;20603;-84
2021/10/15 06:43:11;;;;;;;11.65;3.40;;;10.30;96.70;;;;;;5090954;28;20048;-85
2021/10/15 06:45:39;;;;;;;10.00;4.03;;;10.40;96.70;;;;;;5079286;28;20093;-85
2021/10/15 06:48:07;;;;;;;8.07;3.33;;;10.50;96.70;;;;;;5082950;28;20105;-85
2021/10/15 06:50:35;;;;;;;7.15;2.80;;;10.50;96.70;;;;;;5092523;28;20044;-86
2021/10/15 06:53:08;;;;;;;12.57;3.95;;;10.50;96.70;;;;;;5092995;28;20441;-85
2021/10/15 06:55:36;;;;;;;8.45;3.38;;;10.50;96.70;;;;;;5085814;28;20065;-85
2021/10/15 06:58:06;;;;;;;19.33;6.18;;;10.50;96.70;;;;;;5092994;28;20031;-86
2021/10/15 07:00:34;;;;;;;12.95;6.07;;;10.70;96.70;;;;;;5080588;28;20044;-85
2021/10/15 07:03:02;;;;;;;22.55;7.97;;;10.80;96.70;;;;;;5086933;28;20070;-85
2021/10/15 07:05:30;;;;;;;24.40;8.13;;;10.90;96.70;;;;;;5084567;28;20040;-85
2021/10/15 07:07:58;;;;;;;19.90;7.88;;;10.90;96.70;;;;;;5078918;28;20165;-86
2021/10/15 07:10:30;;;;;;;16.75;6.95;;;10.90;96.70;;;;;;5091246;28;20040;-85
2021/10/15 07:12:58;;;;;;;19.75;6.47;;;11.00;96.70;;;;;;5086143;28;20040;-86
2021/10/15 07:15:28;;;;;;;14.80;5.78;;;11.00;96.70;;;;;;5094578;28;20424;-86
2021/10/15 07:17:56;;;;;;;16.27;5.47;;;10.90;96.70;;;;;;5078627;28;20146;-85
2021/10/15 07:20:27;;;;;;;15.15;6.15;;;11.00;96.70;;;;;;5092764;28;20055;-86
2021/10/15 07:22:55;;;;;;;19.48;6.75;;;11.10;96.70;;;;;;5100156;28;20048;-85
2021/10/15 07:25:23;;;;;;;18.05;6.55;;;11.20;96.70;;;;;;5087755;28;20041;-84
2021/10/15 07:27:51;;;;;;;15.98;7.03;;;11.20;96.70;;;;;;5088776;28;20541;-86
2021/10/15 07:30:19;;;;;;;16.20;6.20;;;11.30;96.70;;;;;;5085041;28;20043;-84
2021/10/15 07:32:52;;;;;;;15.02;6.25;;;11.30;96.70;;;;;;5089195;28;20396;-86
2021/10/15 07:35:20;;;;;;;11.80;5.97;;;11.40;96.70;;;;;;5078458;28;20048;-85
2021/10/15 07:37:48;;;;;;;10.45;5.68;;;11.50;96.70;;;;;;5085956;28;20048;-83
2021/10/15 07:40:16;;;;;;;13.38;5.80;;;11.50;96.70;;;;;;5086941;28;20125;-85
2021/10/15 07:42:49;;;;;;;8.98;5.05;;;11.60;96.70;;;;;;5097377;28;20043;-85
2021/10/15 07:45:17;;;;;;;8.07;4.80;;;11.60;96.70;;;;;;5093402;28;20117;-86
2021/10/15 07:48:00;;;;;;;8.27;4.13;;;11.70;96.70;;;;;;5084904;28;21179;-86
2021/10/15 07:50:28;;;;;;;7.53;4.03;;;11.80;96.70;;;;;;5090055;28;20062;-85
2021/10/15 07:52:56;;;;;;;7.38;3.38;;;11.80;96.70;;;;;;5082441;28;20520;-85
2021/10/15 07:55:24;;;;;;;6.60;3.08;;;11.90;96.70;;;;;;5093007;28;20115;-86
2021/10/15 07:57:52;;;;;;;7.72;3.58;;;11.90;96.70;;;;;;5082410;28;20043;-85
2021/10/15 08:00:21;;;;;;;7.38;3.67;;;12.00;96.70;;;;;;5083726;28;20044;-86
2021/10/15 08:02:50;;;;;;;6.70;3.08;;;12.10;96.70;;;;;;5107191;27;20047;-85
2021/10/15 08:05:20;;;;;;;7.38;2.92;;;12.20;96.70;;;;;;5088269;27;20099;-85
2021/10/15 08:07:48;;;;;;;6.30;3.30;;;12.20;96.70;;;;;;5090582;27;20598;-86
2021/10/15 08:10:16;;;;;;;7.60;3.20;;;12.30;96.70;;;;;;5115956;27;20043;-86
2021/10/15 08:12:44;;;;;;;5.43;2.85;;;12.40;96.70;;;;;;5094057;28;20127;-85
2021/10/15 08:15:14;;;;;;;8.38;3.72;;;12.40;96.70;;;;;;5097428;27;20470;-85
2021/10/15 08:17:43;;;;;;;9.18;3.25;;;12.50;96.70;;;;;;5104979;28;20070;-87
2021/10/15 08:20:13;;;;;;;7.03;3.15;;;12.60;96.70;;;;;;5091519;28;20128;-86
2021/10/15 08:22:48;;;;;;;7.88;3.20;;;12.70;96.70;;;;;;5091060;27;20044;-85
2021/10/15 08:25:25;;;;;;;4.00;2.70;;;12.80;96.70;;;;;;5083301;28;20044;-86
2021/10/15 08:27:53;;;;;;;5.85;3.13;;;12.90;96.70;;;;;;5075010;28;20047;-86
2021/10/15 08:30:21;;;;;;;6.07;3.35;;;12.90;96.70;;;;;;5106690;28;20056;-86
2021/10/15 08:32:52;;;;;;;6.32;2.83;;;12.90;96.70;;;;;;5081904;28;20044;-87
2021/10/15 08:35:21;;;;;;;5.32;2.50;;;12.90;96.70;;;;;;5081912;28;20055;-85
2021/10/15 08:37:52;;;;;;;4.93;2.53;;;13.00;96.70;;;;;;5090922;28;20035;-87
2021/10/15 08:40:20;;;;;;;4.93;2.42;;;13.10;96.70;;;;;;5086968;28;20047;-86
2021/10/15 08:42:51;;;;;;;5.88;2.60;;;13.20;96.70;;;;;;5087263;28;20604;-86
2021/10/15 08:45:23;;;;;;;6.03;2.67;;;13.20;96.70;;;;;;5076930;28;20159;-86
2021/10/15 08:47:51;;;;;;;3.15;1.95;;;13.30;96.70;;;;;;5112526;28;20097;-87
2021/10/15 08:50:39;;;;;;;5.85;2.60;;;13.30;96.70;;;;;;5083152;28;20035;-87
2021/10/15 08:53:09;;;;;;;4.65;2.60;;;13.40;96.70;;;;;;5099760;27;20500;-87
2021/10/15 08:55:37;;;;;;;5.30;2.67;;;13.50;96.70;;;;;;5116667;27;20659;-87
2021/10/15 08:58:05;;;;;;;4.60;2.65;;;13.60;96.70;;;;;;5095999;28;20431;-86
2021/10/15 09:00:35;;;;;;;4.22;2.42;;;13.70;96.70;;;;;;5091028;27;20096;-86
2021/10/15 09:03:14;;;;;;;4.80;2.65;;;13.70;96.70;;;;;;5094619;28;20048;-86
2021/10/15 09:05:51;;;;;;;7.13;2.55;;;13.80;96.70;;;;;;5110194;27;20505;-85
2021/10/15 09:08:21;;;;;;;3.13;2.38;;;14.00;96.70;;;;;;5099788;27;20123;-86
2021/10/15 09:10:49;;;;;;;6.20;2.10;;;14.10;96.70;;;;;;5095142;27;20043;-86
2021/10/15 09:13:19;;;;;;;5.38;2.42;;;14.20;96.70;;;;;;5085793;27;20043;-87
2021/10/15 09:15:49;;;;;;;4.25;2.22;;;14.30;96.70;;;;;;5094525;27;20058;-87
2021/10/15 09:18:19;;;;;;;5.70;2.45;;;14.20;96.70;;;;;;5093899;27;20043;-87
2021/10/15 09:20:48;;;;;;;4.95;2.22;;;14.40;96.70;;;;;;5116414;27;20043;-87
2021/10/15 09:23:16;;;;;;;4.43;2.28;;;14.60;96.70;;;;;;5108966;27;20127;-86
2021/10/15 09:25:46;;;;;;;3.97;2.10;;;14.70;96.70;;;;;;5092201;28;20039;-86
2021/10/15 09:28:17;;;;;;;4.85;1.92;;;14.80;96.70;;;;;;5109329;27;20044;-85
2021/10/15 09:30:48;;;;;;;4.93;2.50;;;14.90;96.70;;;;;;5102214;27;20043;-87
2021/10/15 09:33:18;;;;;;;5.68;2.33;;;15.00;96.70;;;;;;5085380;28;20058;-87
2021/10/15 09:35:46;;;;;;;5.00;2.90;;;15.10;96.70;;;;;;5086716;27;20045;-86
2021/10/15 09:38:14;;;;;;;6.10;2.30;;;15.10;96.70;;;;;;5096087;27;20047;-87
2021/10/15 09:40:47;;;;;;;3.20;2.00;;;15.20;96.70;;;;;;5117536;27;20115;-86
2021/10/15 09:43:16;;;;;;;2.90;1.95;;;15.30;96.70;;;;;;5101028;27;20047;-86
2021/10/15 09:45:46;;;;;;;5.95;1.98;;;15.30;96.70;;;;;;5096069;27;20231;-86
2021/10/15 09:48:20;;;;;;;2.63;1.50;;;15.40;96.70;;;;;;5091862;28;20044;-87
2021/10/15 09:51:04;;;;;;;4.28;2.20;;;15.50;96.40;;;;;;5101659;27;20035;-87
2021/10/15 09:53:32;;;;;;;3.40;1.80;;;15.70;96.70;;;;;;5101851;27;20043;-87
2021/10/15 09:56:01;;;;;;;2.72;1.83;;;15.80;96.30;;;;;;5113931;27;20044;-87
2021/10/15 09:58:29;;;;;;;3.22;1.67;;;15.80;95.90;;;;;;5090322;28;20159;-87
2021/10/15 10:00:57;;;;;;;3.97;2.20;;;15.90;95.80;;;;;;5095549;28;20067;-87
2021/10/15 10:03:26;;;;;;;8.88;2.72;;;16.00;95.50;;;;;;5072346;28;20113;-86
2021/10/15 10:05:54;;;;;;;4.25;2.08;;;16.10;94.90;;;;;;5085194;28;20085;-86
2021/10/15 10:08:24;;;;;;;6.50;2.55;;;16.20;94.50;;;;;;5097690;28;20075;-87
2021/10/15 10:10:52;;;;;;;5.40;2.40;;;16.40;94.10;;;;;;5092222;28;20097;-86
2021/10/15 10:13:22;;;;;;;5.03;2.00;;;16.60;93.90;;;;;;5118376;28;20492;-86
2021/10/15 10:15:50;;;;;;;3.97;2.08;;;16.70;94.00;;;;;;5104050;28;20036;-87
2021/10/15 10:18:28;;;;;;;5.45;2.20;;;16.80;93.90;;;;;;5084593;28;20044;-86
2021/10/15 10:21:04;;;;;;;3.42;2.05;;;16.90;93.10;;;;;;5092070;28;20055;-86
2021/10/15 10:23:37;;;;;;;3.53;2.03;;;17.00;92.10;;;;;;5098961;28;20043;-86
2021/10/15 10:26:09;;;;;;;5.13;2.35;;;17.10;92.40;;;;;;5099580;28;20047;-86
2021/10/15 10:28:40;;;;;;;3.83;2.10;;;17.10;92.60;;;;;;5098276;28;20043;-86
2021/10/15 10:31:21;;;;;;;4.22;2.75;;;17.20;92.30;;;;;;5096232;28;20436;-87
2021/10/15 10:33:54;;;;;;;5.70;2.45;;;17.30;91.80;;;;;;5078100;28;20039;-86
2021/10/15 10:36:24;;;;;;;2.90;1.90;;;17.40;90.90;;;;;;5082577;28;20074;-85
2021/10/15 10:38:52;;;;;;;4.82;2.20;;;17.50;90.70;;;;;;5090403;28;20039;-86
2021/10/15 10:41:27;;;;;;;4.95;2.50;;;17.50;90.10;;;;;;5102701;28;20770;-86
2021/10/15 10:44:13;;;;;;;3.83;2.00;;;17.60;90.60;;;;;;5078692;28;20112;-86
2021/10/15 10:47:11;;;;;;;3.08;2.05;;;17.50;90.30;;;;;;5092465;28;20626;-86
2021/10/15 10:50:11;;;;;;;3.00;2.00;;;17.60;90.00;;;;;;5095870;28;20524;-87
2021/10/15 10:53:04;;;;;;;4.93;2.15;;;17.80;89.30;;;;;;5111526;28;20039;-86
2021/10/15 10:55:35;;;;;;;2.92;1.77;;;18.00;87.90;;;;;;5037509;28;1488450;-87
2021/10/15 10:58:33;;;;;;;6.18;2.00;;;18.00;87.30;;;;;;5093666;27;20586;-86
2021/10/15 11:01:43;;;;;;;4.40;1.98;;;18.20;87.70;;;;;;5100720;27;20031;-86
2021/10/15 11:04:26;;;;;;;5.18;2.22;;;18.30;86.80;;;;;;5020558;28;20077;-86
2021/10/15 11:06:58;;;;;;;4.47;1.75;;;18.40;87.10;;;;;;5022570;28;20480;-87
2021/10/15 11:09:31;;;;;;;2.92;1.60;;;18.50;86.30;;;;;;5026862;28;20033;-87
2021/10/15 11:11:59;;;;;;;3.80;2.00;;;18.60;85.70;;;;;;5052257;28;20052;-85
2021/10/15 11:14:53;;;;;;;2.92;1.80;;;18.70;85.30;;;;;;5031035;28;20100;-86
2021/10/15 11:17:27;;;;;;;4.80;2.10;;;18.70;84.90;;;;;;5041459;28;20518;-86
2021/10/15 11:20:14;;;;;;;5.53;1.83;;;18.80;85.40;;;;;;5046173;28;20052;-84
2021/10/15 11:22:46;;;;;;;5.43;1.77;;;18.90;84.90;;;;;;5038148;28;20140;-85
2021/10/15 11:25:15;;;;;;;4.35;1.45;;;19.10;84.20;;;;;;5037774;28;20542;-88
2021/10/15 11:27:46;;;;;;;4.07;2.00;;;19.10;84.10;;;;;;5051008;28;20049;-86
2021/10/15 11:30:14;;;;;;;3.50;1.88;;;19.30;83.90;;;;;;5045854;28;20052;-87
2021/10/15 11:32:46;;;;;;;2.67;1.80;;;19.30;84.00;;;;;;5058992;28;20048;-86
2021/10/15 11:35:22;;;;;;;3.30;1.73;;;19.20;83.90;;;;;;5031681;28;20072;-86
2021/10/15 11:37:56;;;;;;;2.58;1.67;;;19.30;83.40;;;;;;5068479;27;20474;-87
2021/10/15 11:40:28;;;;;;;2.25;1.63;;;19.50;83.70;;;;;;5097326;27;20055;-85
2021/10/15 11:43:07;;;;;;;6.00;1.88;;;19.40;83.40;;;;;;5098058;27;20055;-86
2021/10/15 11:45:36;;;;;;;3.78;1.60;;;19.60;83.40;;;;;;5100215;27;20035;-86
2021/10/15 11:48:08;;;;;;;3.50;1.77;;;19.70;83.40;;;;;;5112623;27;20146;-86
2021/10/15 11:50:42;;;;;;;2.25;1.30;;;19.60;83.80;;;;;;5077266;27;20130;-86
2021/10/15 11:53:11;;;;;;;2.55;1.50;;;19.50;83.20;;;;;;5083708;27;20035;-85
2021/10/15 11:55:42;;;;;;;3.10;1.60;;;19.50;83.40;;;;;;5085107;28;20056;-85
2021/10/15 11:58:27;;;;;;;3.15;1.58;;;19.60;83.70;;;;;;5088637;28;20044;-85
2021/10/15 12:01:03;;;;;;;3.80;1.88;;;19.70;83.80;;;;;;5079072;28;20058;-84
2021/10/15 12:03:34;;;;;;;;;;;19.80;84.10;;;;;;5092161;28;20154;-85
2021/10/15 12:06:18;;;;;;;4.50;2.45;;;19.90;83.30;;;;;;5094084;28;20026;-85
2021/10/15 12:08:47;;;;;;;5.65;2.28;;;20.20;83.30;;;;;;5087628;28;20059;-85
2021/10/15 12:11:18;;;;;;;2.45;1.48;;;20.30;82.90;;;;;;5090826;28;20615;-85
2021/10/15 12:13:47;;;;;;;6.88;1.73;;;20.30;82.80;;;;;;5075527;28;20316;-90
2021/10/15 12:16:21;;;;;;;6.00;1.85;;;20.40;82.30;;;;;;5084702;28;20044;-87
2021/10/15 12:19:03;;;;;;;3.20;1.67;;;20.50;82.90;;;;;;5077127;28;20805;-89
2021/10/15 12:21:41;;;;;;;3.55;1.60;;;20.70;81.70;;;;;;5096633;28;20189;-88
2021/10/15 12:24:11;;;;;;;4.25;1.90;;;20.70;81.20;;;;;;5092667;28;20496;-87
2021/10/15 12:26:39;;;;;;;4.70;1.85;;;20.70;81.90;;;;;;5079527;28;20054;-88
2021/10/15 12:29:26;;;;;;;2.40;1.80;;;20.80;82.60;;;;;;5078436;28;20047;-86
2021/10/15 12:32:22;;;;;;;4.13;2.00;;;20.70;83.50;;;;;;5091575;28;20055;-85
2021/10/15 12:35:07;;;;;;;4.40;1.42;;;20.80;82.60;;;;;;5041586;28;20044;-85
2021/10/15 12:37:41;;;;;;;4.63;2.00;;;20.90;82.10;;;;;;5085980;28;20040;-87
2021/10/15 12:40:33;;;;;;;1.92;1.30;;;20.90;82.00;;;;;;5093850;28;20044;-88
2021/10/15 12:43:11;;;;;;;5.18;1.58;;;21.10;81.60;;;;;;5093627;28;20564;-86
2021/10/15 12:45:42;;;;;;;2.92;1.52;;;21.20;81.30;;;;;;5096914;28;20040;-86
2021/10/15 12:48:16;;;;;;;3.05;1.48;;;21.20;81.60;;;;;;5084513;28;20060;-87
2021/10/15 12:51:05;;;;;;;3.63;1.38;;;21.20;81.50;;;;;;5095830;28;20051;-87
2021/10/15 12:53:39;;;;;;;2.83;1.42;;;21.30;82.10;;;;;;5091397;28;20040;-87
2021/10/15 12:56:13;;;;;;;3.17;1.48;;;21.30;82.30;;;;;;5085025;28;20135;-87
2021/10/15 12:58:47;;;;;;;3.45;1.42;;;21.30;80.30;;;;;;5090022;28;20607;-87
2021/10/15 13:01:21;;;;;;;3.30;1.10;;;21.20;80.70;;;;;;5089191;28;20044;-87
2021/10/15 13:03:50;;;;;;;5.13;1.60;;;21.20;81.70;;;;;;5092414;28;20066;-86
2021/10/15 13:06:19;;;;;;;3.00;1.42;;;21.20;80.70;;;;;;5074773;28;20060;-87
2021/10/15 13:08:49;;;;;;;2.40;1.33;;;21.30;80.70;;;;;;5092464;28;20083;-87
2021/10/15 13:11:18;;;;;;;3.15;1.13;;;21.30;81.40;;;;;;5089588;28;20070;-86
2021/10/15 13:13:46;;;;;;;2.65;1.50;;;21.40;81.30;;;;;;5098644;28;20109;-87